Decoded Metar for GMME (RABAT in MOROCCO) (IATA:RBA) | Meteo·Mobile Aviation Weather
aviador You're here:

GMME Decoded Metar

RABAT in MOROCCO
Report Time2019-04-19 22:00:00
UTC Time2019-04-19 22:28:35
Flight Rules mvfr MVFR
WindCalm
Visibility8000 m
Phenomena:N/A
Clouds:Scattered 015 Hf
Broken 023 Hf
Expected CloudBase > 1,200 ft AGL from Temp-Dew spread
Ceiling2,300 ft
Temp13°C (ISA -2)
Dew Point10°C (82% RH)
QNH1014 hPa
Density Alt200 ft
Elevation246 ft
Report Wrong Elevation
Raw Report
METAR GMME 192200Z 00000KT 8000 SCT015 BKN023 13/10 Q1014 NOSIG=

Extra information for GMME:More info

Metar Taf Metar & Taf Last 4 Metars F.Rules Stats Wind Profile Meteogram Temp Stats Airport Information Weather charts Add Link Nearby VenuesMetar ALERT Operation Metar Decoded Social comments